ROA256 SCBA-SCEL
Flight info
| Callsign | ROA256 |
|---|---|
| Flight time | 1h 43m |
| Altitude | 34000 |
| Route | REKOD6C REKOD UT127 MON UQ802 EROLO EROLO8A |
| Aircraft | A320/M-SDE3FGHIRWY/LB1 |
Departure
| Time | 2026-05-08 01:07 |
|---|---|
| Airport | Balmaceda Airport (SCBA) |
Arrival
| Time | 2026-05-08 02:50 |
|---|---|
| Airport | Comodoro Arturo Merino Benítez International Airport (SCEL) |
| Time | Latitude | Longitude | Altitude | Speed | Heading |
|---|---|---|---|---|---|
| 2026-05-08 00:37 | -45.91299 | -71.69228 | 1747 ft | 0 kts | 302° |
| 2026-05-08 00:55 | -45.91303 | -71.69218 | 1740 ft | 2 kts | 302° |
| 2026-05-08 00:55 | -45.91309 | -71.69195 | 1738 ft | 3 kts | 266° |
| 2026-05-08 00:55 | -45.91305 | -71.69170 | 1738 ft | 3 kts | 230° |
| 2026-05-08 00:55 | -45.91300 | -71.69162 | 1739 ft | 0 kts | 218° |
| 2026-05-08 00:58 | -45.91310 | -71.69168 | 1739 ft | 3 kts | 202° |
| 2026-05-08 00:58 | -45.91348 | -71.69190 | 1743 ft | 9 kts | 203° |
| 2026-05-08 00:58 | -45.91413 | -71.69203 | 1742 ft | 10 kts | 149° |
| 2026-05-08 00:58 | -45.91436 | -71.69110 | 1742 ft | 10 kts | 99° |
| 2026-05-08 00:59 | -45.91449 | -71.69002 | 1742 ft | 12 kts | 100° |
| 2026-05-08 00:59 | -45.91459 | -71.68920 | 1742 ft | 7 kts | 100° |
| 2026-05-08 00:59 | -45.91465 | -71.68873 | 1741 ft | 8 kts | 100° |
| 2026-05-08 00:59 | -45.91480 | -71.68759 | 1742 ft | 16 kts | 101° |
| 2026-05-08 01:00 | -45.91505 | -71.68564 | 1742 ft | 14 kts | 99° |
| 2026-05-08 01:00 | -45.91531 | -71.68374 | 1742 ft | 24 kts | 101° |
| 2026-05-08 01:00 | -45.91548 | -71.68233 | 1740 ft | 18 kts | 101° |
| 2026-05-08 01:00 | -45.91572 | -71.68039 | 1743 ft | 20 kts | 99° |
| 2026-05-08 01:01 | -45.91599 | -71.67841 | 1742 ft | 10 kts | 100° |
| 2026-05-08 01:01 | -45.91610 | -71.67750 | 1741 ft | 8 kts | 100° |
| 2026-05-08 01:01 | -45.91620 | -71.67675 | 1741 ft | 7 kts | 100° |
| 2026-05-08 01:01 | -45.91628 | -71.67614 | 1742 ft | 5 kts | 101° |
| 2026-05-08 01:02 | -45.91635 | -71.67568 | 1741 ft | 4 kts | 101° |
| 2026-05-08 01:02 | -45.91642 | -71.67508 | 1741 ft | 7 kts | 100° |
| 2026-05-08 01:02 | -45.91650 | -71.67444 | 1743 ft | 6 kts | 100° |
| 2026-05-08 01:02 | -45.91657 | -71.67395 | 1743 ft | 4 kts | 100° |
| 2026-05-08 01:03 | -45.91661 | -71.67359 | 1744 ft | 3 kts | 101° |
| 2026-05-08 01:03 | -45.91667 | -71.67338 | 1738 ft | 2 kts | 118° |
| 2026-05-08 01:03 | -45.91690 | -71.67331 | 1742 ft | 4 kts | 191° |
| 2026-05-08 01:03 | -45.91699 | -71.67334 | 1742 ft | 0 kts | 193° |
| 2026-05-08 01:04 | -45.91724 | -71.67343 | 1736 ft | 8 kts | 193° |
| 2026-05-08 01:04 | -45.91783 | -71.67366 | 1735 ft | 6 kts | 216° |
| 2026-05-08 01:04 | -45.91782 | -71.67415 | 1738 ft | 0 kts | 280° |
| 2026-05-08 01:06 | -45.91774 | -71.67480 | 1742 ft | 32 kts | 279° |
| 2026-05-08 01:06 | -45.91689 | -71.68166 | 1739 ft | 104 kts | 280° |
| 2026-05-08 01:06 | -45.91532 | -71.69458 | 1784 ft | 153 kts | 279° |
| 2026-05-08 01:06 | -45.91338 | -71.70980 | 2321 ft | 158 kts | 281° |
| 2026-05-08 01:07 | -45.91123 | -71.72606 | 2676 ft | 176 kts | 280° |
| 2026-05-08 01:07 | -45.90895 | -71.74443 | 2994 ft | 198 kts | 279° |
| 2026-05-08 01:07 | -45.90643 | -71.76512 | 3335 ft | 223 kts | 279° |
| 2026-05-08 01:07 | -45.90364 | -71.78827 | 3837 ft | 245 kts | 279° |
| 2026-05-08 01:08 | -45.90011 | -71.81285 | 4560 ft | 255 kts | 289° |
| 2026-05-08 01:08 | -45.88978 | -71.83378 | 5340 ft | 266 kts | 320° |
| 2026-05-08 01:08 | -45.87416 | -71.84861 | 6154 ft | 272 kts | 326° |
| 2026-05-08 01:08 | -45.85789 | -71.86310 | 6928 ft | 278 kts | 326° |
| 2026-05-08 01:09 | -45.84126 | -71.87776 | 7723 ft | 283 kts | 326° |
| 2026-05-08 01:09 | -45.82440 | -71.89263 | 8532 ft | 287 kts | 325° |
| 2026-05-08 01:09 | -45.80732 | -71.90777 | 9350 ft | 291 kts | 324° |
| 2026-05-08 01:09 | -45.79003 | -71.92317 | 10163 ft | 295 kts | 324° |
| 2026-05-08 01:10 | -45.77209 | -71.93923 | 10521 ft | 315 kts | 323° |
| 2026-05-08 01:10 | -45.75287 | -71.95651 | 10807 ft | 336 kts | 324° |
| 2026-05-08 01:10 | -45.73277 | -71.97451 | 11404 ft | 344 kts | 323° |
| 2026-05-08 01:10 | -45.71231 | -71.99278 | 12097 ft | 349 kts | 323° |
| 2026-05-08 01:11 | -45.69150 | -72.01132 | 12786 ft | 355 kts | 323° |
| 2026-05-08 01:11 | -45.67039 | -72.03008 | 13463 ft | 360 kts | 322° |
| 2026-05-08 01:11 | -45.64889 | -72.04904 | 14147 ft | 365 kts | 323° |
| 2026-05-08 01:11 | -45.62670 | -72.06734 | 14733 ft | 372 kts | 325° |
| 2026-05-08 01:12 | -45.60371 | -72.08505 | 15334 ft | 377 kts | 326° |
| 2026-05-08 01:12 | -45.58029 | -72.10252 | 15885 ft | 382 kts | 326° |
| 2026-05-08 01:12 | -45.55650 | -72.12010 | 16453 ft | 387 kts | 326° |
| 2026-05-08 01:12 | -45.53252 | -72.13791 | 17001 ft | 391 kts | 326° |
| 2026-05-08 01:13 | -45.50829 | -72.15610 | 17511 ft | 395 kts | 325° |
| 2026-05-08 01:13 | -45.48390 | -72.17460 | 18061 ft | 400 kts | 325° |
| 2026-05-08 01:13 | -45.45922 | -72.19338 | 18640 ft | 404 kts | 325° |
| 2026-05-08 01:13 | -45.43439 | -72.21232 | 19131 ft | 407 kts | 325° |
| 2026-05-08 01:14 | -45.40924 | -72.23148 | 19674 ft | 411 kts | 325° |
| 2026-05-08 01:14 | -45.38397 | -72.25073 | 20144 ft | 414 kts | 326° |
| 2026-05-08 01:14 | -45.35790 | -72.26887 | 20685 ft | 422 kts | 333° |
| 2026-05-08 01:14 | -45.32968 | -72.28129 | 21215 ft | 430 kts | 343° |
| 2026-05-08 01:15 | -45.30006 | -72.28933 | 21707 ft | 434 kts | 345° |
| 2026-05-08 01:15 | -45.27029 | -72.29730 | 22196 ft | 437 kts | 345° |
| 2026-05-08 01:15 | -45.24033 | -72.30540 | 22706 ft | 439 kts | 345° |
| 2026-05-08 01:15 | -45.21029 | -72.31359 | 23148 ft | 442 kts | 345° |
| 2026-05-08 01:16 | -45.17994 | -72.32192 | 23620 ft | 445 kts | 345° |
| 2026-05-08 01:16 | -45.14947 | -72.33027 | 24038 ft | 448 kts | 345° |
| 2026-05-08 01:16 | -45.11837 | -72.33875 | 24406 ft | 450 kts | 345° |
| 2026-05-08 01:16 | -45.08801 | -72.34699 | 24767 ft | 451 kts | 345° |
| 2026-05-08 01:17 | -45.05703 | -72.35538 | 25155 ft | 454 kts | 345° |
| 2026-05-08 01:17 | -45.02550 | -72.36390 | 25530 ft | 456 kts | 345° |
| 2026-05-08 01:17 | -44.99425 | -72.37232 | 25898 ft | 458 kts | 345° |
| 2026-05-08 01:17 | -44.96287 | -72.38077 | 26244 ft | 460 kts | 345° |
| 2026-05-08 01:18 | -44.93128 | -72.38928 | 26629 ft | 462 kts | 345° |
| 2026-05-08 01:18 | -44.89956 | -72.39782 | 27001 ft | 465 kts | 345° |
| 2026-05-08 01:18 | -44.86776 | -72.40636 | 27384 ft | 467 kts | 345° |
| 2026-05-08 01:18 | -44.83580 | -72.41496 | 27714 ft | 469 kts | 345° |
| 2026-05-08 01:19 | -44.80321 | -72.42374 | 28072 ft | 471 kts | 345° |
| 2026-05-08 01:19 | -44.77095 | -72.43243 | 28400 ft | 473 kts | 345° |
| 2026-05-08 01:19 | -44.73854 | -72.44115 | 28775 ft | 475 kts | 345° |
| 2026-05-08 01:19 | -44.70594 | -72.44987 | 29096 ft | 478 kts | 345° |
| 2026-05-08 01:20 | -44.67313 | -72.45864 | 29445 ft | 480 kts | 345° |
| 2026-05-08 01:20 | -44.64028 | -72.46739 | 29751 ft | 482 kts | 345° |
| 2026-05-08 01:20 | -44.60768 | -72.47608 | 30030 ft | 484 kts | 345° |
| 2026-05-08 01:20 | -44.57408 | -72.48500 | 30279 ft | 486 kts | 345° |
| 2026-05-08 01:21 | -44.54079 | -72.49383 | 30481 ft | 488 kts | 345° |
| 2026-05-08 01:21 | -44.50743 | -72.50270 | 30731 ft | 490 kts | 345° |
| 2026-05-08 01:21 | -44.47382 | -72.51165 | 30928 ft | 492 kts | 345° |
| 2026-05-08 01:21 | -44.44009 | -72.52064 | 31139 ft | 495 kts | 345° |
| 2026-05-08 01:22 | -44.41718 | -72.52674 | 31327 ft | 495 kts | 345° |
| 2026-05-08 01:22 | -44.37229 | -72.53865 | 31713 ft | 496 kts | 344° |
| 2026-05-08 01:22 | -44.33835 | -72.54762 | 31995 ft | 497 kts | 344° |
| 2026-05-08 01:22 | -44.30426 | -72.55659 | 32261 ft | 498 kts | 344° |
| 2026-05-08 01:23 | -44.27022 | -72.56556 | 32522 ft | 499 kts | 344° |
| 2026-05-08 01:23 | -44.24760 | -72.57149 | 32696 ft | 499 kts | 344° |
| 2026-05-08 01:23 | -44.21293 | -72.58058 | 32963 ft | 500 kts | 343° |
| 2026-05-08 01:23 | -44.17868 | -72.58957 | 33219 ft | 501 kts | 343° |
| 2026-05-08 01:24 | -44.14433 | -72.59858 | 33491 ft | 502 kts | 343° |
| 2026-05-08 01:24 | -44.11027 | -72.60752 | 33718 ft | 504 kts | 343° |
| 2026-05-08 01:24 | -44.07546 | -72.61667 | 33966 ft | 505 kts | 343° |
| 2026-05-08 01:24 | -44.04086 | -72.62578 | 34218 ft | 506 kts | 343° |
| 2026-05-08 01:25 | -44.00614 | -72.63486 | 34447 ft | 506 kts | 343° |
| 2026-05-08 01:25 | -43.97147 | -72.64390 | 34668 ft | 507 kts | 342° |
| 2026-05-08 01:25 | -43.93673 | -72.65295 | 34880 ft | 508 kts | 342° |
| 2026-05-08 01:25 | -43.90200 | -72.66198 | 35085 ft | 509 kts | 342° |
| 2026-05-08 01:26 | -43.86714 | -72.67100 | 35212 ft | 509 kts | 342° |
| 2026-05-08 01:26 | -43.79740 | -72.68897 | 35242 ft | 505 kts | 342° |
| 2026-05-08 01:27 | -43.72810 | -72.70689 | 35244 ft | 505 kts | 342° |
| 2026-05-08 01:27 | -43.65893 | -72.72481 | 35234 ft | 506 kts | 341° |
| 2026-05-08 01:28 | -43.58950 | -72.74277 | 35240 ft | 509 kts | 341° |
| 2026-05-08 01:28 | -43.51976 | -72.76079 | 35234 ft | 510 kts | 341° |
| 2026-05-08 01:29 | -43.44990 | -72.77874 | 35222 ft | 510 kts | 341° |
| 2026-05-08 01:29 | -43.37997 | -72.79625 | 35212 ft | 512 kts | 343° |
| 2026-05-08 01:30 | -43.30903 | -72.80994 | 35211 ft | 517 kts | 345° |
| 2026-05-08 01:30 | -43.23734 | -72.82123 | 35207 ft | 519 kts | 346° |
| 2026-05-08 01:31 | -43.16600 | -72.83295 | 35203 ft | 520 kts | 345° |
| 2026-05-08 01:31 | -43.09333 | -72.84594 | 35203 ft | 520 kts | 344° |
| 2026-05-08 01:32 | -43.02084 | -72.85909 | 35205 ft | 522 kts | 344° |
| 2026-05-08 01:32 | -42.94882 | -72.87181 | 35205 ft | 523 kts | 344° |
| 2026-05-08 01:33 | -42.87646 | -72.88433 | 35212 ft | 525 kts | 344° |
| 2026-05-08 01:33 | -42.80388 | -72.89699 | 35213 ft | 526 kts | 344° |
| 2026-05-08 01:34 | -42.73107 | -72.90973 | 35213 ft | 527 kts | 344° |
| 2026-05-08 01:34 | -42.65814 | -72.92239 | 35211 ft | 529 kts | 344° |
| 2026-05-08 01:35 | -42.58495 | -72.93504 | 35201 ft | 530 kts | 344° |
| 2026-05-08 01:35 | -42.51162 | -72.94765 | 35196 ft | 531 kts | 344° |
| 2026-05-08 01:36 | -42.43820 | -72.96041 | 35198 ft | 532 kts | 344° |
| 2026-05-08 01:36 | -42.36475 | -72.97323 | 35198 ft | 533 kts | 344° |
| 2026-05-08 01:37 | -42.29100 | -72.98582 | 35195 ft | 535 kts | 344° |
| 2026-05-08 01:37 | -42.21721 | -72.99838 | 35190 ft | 536 kts | 344° |
| 2026-05-08 01:38 | -42.14303 | -73.01109 | 35193 ft | 537 kts | 343° |
| 2026-05-08 01:38 | -42.06902 | -73.02377 | 35196 ft | 537 kts | 343° |
| 2026-05-08 01:39 | -41.99454 | -73.03642 | 35196 ft | 538 kts | 343° |
| 2026-05-08 01:39 | -41.92006 | -73.04914 | 35197 ft | 539 kts | 343° |
| 2026-05-08 01:40 | -41.84557 | -73.06179 | 35194 ft | 540 kts | 343° |
| 2026-05-08 01:40 | -41.77099 | -73.07439 | 35191 ft | 540 kts | 343° |
| 2026-05-08 01:41 | -41.69624 | -73.08698 | 35193 ft | 541 kts | 343° |
| 2026-05-08 01:41 | -41.62120 | -73.09880 | 35197 ft | 547 kts | 349° |
| 2026-05-08 01:42 | -41.54442 | -73.09714 | 35193 ft | 554 kts | 355° |
| 2026-05-08 01:42 | -41.46733 | -73.09355 | 35189 ft | 554 kts | 355° |
| 2026-05-08 01:43 | -41.39009 | -73.08469 | 35191 ft | 561 kts | 2° |
| 2026-05-08 01:43 | -41.31276 | -73.07008 | 35189 ft | 561 kts | 3° |
| 2026-05-08 01:44 | -41.23552 | -73.05554 | 35202 ft | 561 kts | 2° |
| 2026-05-08 01:44 | -41.15801 | -73.04115 | 35212 ft | 561 kts | 2° |
| 2026-05-08 01:45 | -41.08065 | -73.02682 | 35219 ft | 562 kts | 2° |
| 2026-05-08 01:45 | -41.00610 | -73.01296 | 35215 ft | 562 kts | 2° |
| 2026-05-08 01:46 | -40.92865 | -72.99871 | 35212 ft | 562 kts | 2° |
| 2026-05-08 01:46 | -40.85103 | -72.98450 | 35217 ft | 562 kts | 2° |
| 2026-05-08 01:47 | -40.78419 | -72.97225 | 35220 ft | 562 kts | 2° |
| 2026-05-08 01:47 | -40.70714 | -72.95818 | 35224 ft | 562 kts | 2° |
| 2026-05-08 01:48 | -40.59087 | -72.93702 | 35225 ft | 562 kts | 2° |
| 2026-05-08 01:48 | -40.51325 | -72.92290 | 35222 ft | 562 kts | 2° |
| 2026-05-08 01:49 | -40.43567 | -72.90882 | 35222 ft | 562 kts | 2° |
| 2026-05-08 01:49 | -40.35814 | -72.89492 | 35225 ft | 562 kts | 2° |
| 2026-05-08 01:50 | -40.28045 | -72.88136 | 35225 ft | 562 kts | 1° |
| 2026-05-08 01:50 | -40.20224 | -72.86869 | 35236 ft | 563 kts | 1° |
| 2026-05-08 01:51 | -40.12456 | -72.85626 | 35238 ft | 563 kts | 1° |
| 2026-05-08 01:51 | -40.04673 | -72.84367 | 35235 ft | 563 kts | 1° |
| 2026-05-08 01:52 | -39.96901 | -72.83115 | 35230 ft | 563 kts | 1° |
| 2026-05-08 01:52 | -39.89098 | -72.81853 | 35228 ft | 563 kts | 1° |
| 2026-05-08 01:53 | -39.81322 | -72.80585 | 35234 ft | 564 kts | 1° |
| 2026-05-08 01:53 | -39.73577 | -72.79331 | 35235 ft | 564 kts | 1° |
| 2026-05-08 01:54 | -39.65780 | -72.78036 | 35237 ft | 565 kts | 2° |
| 2026-05-08 01:54 | -39.57979 | -72.76596 | 35246 ft | 566 kts | 3° |
| 2026-05-08 01:55 | -39.50124 | -72.75112 | 35240 ft | 566 kts | 3° |
| 2026-05-08 01:55 | -39.42314 | -72.73674 | 35248 ft | 566 kts | 2° |
| 2026-05-08 01:56 | -39.34513 | -72.72284 | 35245 ft | 566 kts | 2° |
| 2026-05-08 01:56 | -39.26707 | -72.70877 | 35242 ft | 566 kts | 2° |
| 2026-05-08 01:57 | -39.18914 | -72.69463 | 35255 ft | 566 kts | 2° |
| 2026-05-08 01:57 | -39.11106 | -72.68053 | 35267 ft | 566 kts | 2° |
| 2026-05-08 01:58 | -39.03293 | -72.66658 | 35274 ft | 566 kts | 2° |
| 2026-05-08 01:58 | -38.95493 | -72.65264 | 35278 ft | 566 kts | 2° |
| 2026-05-08 01:59 | -38.87666 | -72.63759 | 35275 ft | 568 kts | 6° |
| 2026-05-08 01:59 | -38.79913 | -72.61626 | 35273 ft | 571 kts | 10° |
| 2026-05-08 02:00 | -38.72201 | -72.59163 | 35270 ft | 571 kts | 10° |
| 2026-05-08 02:00 | -38.64475 | -72.56825 | 35269 ft | 570 kts | 8° |
| 2026-05-08 02:01 | -38.56786 | -72.54680 | 35274 ft | 569 kts | 8° |
| 2026-05-08 02:01 | -38.49034 | -72.52548 | 35281 ft | 569 kts | 8° |
| 2026-05-08 02:02 | -38.41303 | -72.50374 | 35283 ft | 569 kts | 8° |
| 2026-05-08 02:02 | -38.33568 | -72.48172 | 35290 ft | 569 kts | 8° |
| 2026-05-08 02:03 | -38.25850 | -72.45994 | 35297 ft | 568 kts | 8° |
| 2026-05-08 02:03 | -38.18129 | -72.43834 | 35308 ft | 568 kts | 8° |
| 2026-05-08 02:04 | -38.10397 | -72.41675 | 35298 ft | 567 kts | 8° |
| 2026-05-08 02:04 | -38.02693 | -72.39522 | 35304 ft | 568 kts | 8° |
| 2026-05-08 02:05 | -37.94982 | -72.37368 | 35318 ft | 567 kts | 8° |
| 2026-05-08 02:05 | -37.87272 | -72.35234 | 35325 ft | 567 kts | 8° |
| 2026-05-08 02:06 | -37.79509 | -72.33083 | 35316 ft | 567 kts | 8° |
| 2026-05-08 02:06 | -37.71817 | -72.30953 | 35127 ft | 565 kts | 8° |
| 2026-05-08 02:07 | -37.67918 | -72.29873 | 34771 ft | 565 kts | 8° |
| 2026-05-08 02:07 | -37.64127 | -72.28824 | 34422 ft | 566 kts | 9° |
| 2026-05-08 02:07 | -37.60241 | -72.27708 | 34281 ft | 565 kts | 10° |
| 2026-05-08 02:07 | -37.56401 | -72.26547 | 34351 ft | 568 kts | 11° |
| 2026-05-08 02:08 | -37.48730 | -72.24139 | 34340 ft | 568 kts | 11° |
| 2026-05-08 02:08 | -37.41009 | -72.21755 | 34343 ft | 567 kts | 10° |
| 2026-05-08 02:09 | -37.33356 | -72.19450 | 34340 ft | 566 kts | 10° |
| 2026-05-08 02:09 | -37.25683 | -72.17146 | 34339 ft | 565 kts | 10° |
| 2026-05-08 02:10 | -37.18040 | -72.14826 | 34336 ft | 564 kts | 10° |
| 2026-05-08 02:10 | -37.10411 | -72.12504 | 34337 ft | 563 kts | 10° |
| 2026-05-08 02:11 | -37.02782 | -72.10204 | 34335 ft | 563 kts | 10° |
| 2026-05-08 02:11 | -36.95298 | -72.07959 | 34341 ft | 562 kts | 10° |
| 2026-05-08 02:12 | -36.87705 | -72.05686 | 34344 ft | 561 kts | 10° |
| 2026-05-08 02:12 | -36.80109 | -72.03407 | 34342 ft | 561 kts | 9° |
| 2026-05-08 02:13 | -36.73749 | -72.01504 | 34332 ft | 560 kts | 9° |
| 2026-05-08 02:13 | -36.66180 | -71.99249 | 34340 ft | 559 kts | 9° |
| 2026-05-08 02:14 | -36.58610 | -71.96985 | 34333 ft | 559 kts | 9° |
| 2026-05-08 02:14 | -36.51056 | -71.94734 | 34332 ft | 559 kts | 9° |
| 2026-05-08 02:15 | -36.43521 | -71.92499 | 34333 ft | 558 kts | 9° |
| 2026-05-08 02:15 | -36.35958 | -71.90265 | 34325 ft | 558 kts | 9° |
| 2026-05-08 02:16 | -36.28405 | -71.88035 | 34326 ft | 558 kts | 9° |
| 2026-05-08 02:16 | -36.20847 | -71.85803 | 34319 ft | 558 kts | 9° |
| 2026-05-08 02:17 | -36.13287 | -71.83569 | 34326 ft | 558 kts | 9° |
| 2026-05-08 02:17 | -36.05727 | -71.81342 | 34321 ft | 558 kts | 9° |
| 2026-05-08 02:18 | -35.98119 | -71.79113 | 34320 ft | 558 kts | 9° |
| 2026-05-08 02:18 | -35.90618 | -71.76925 | 34317 ft | 557 kts | 9° |
| 2026-05-08 02:19 | -35.83066 | -71.74724 | 34319 ft | 557 kts | 9° |
| 2026-05-08 02:19 | -35.75526 | -71.72526 | 34321 ft | 556 kts | 9° |
| 2026-05-08 02:20 | -35.67988 | -71.70333 | 34320 ft | 556 kts | 9° |
| 2026-05-08 02:20 | -35.60461 | -71.68142 | 34321 ft | 555 kts | 9° |
| 2026-05-08 02:21 | -35.52952 | -71.65965 | 34321 ft | 555 kts | 9° |
| 2026-05-08 02:21 | -35.45429 | -71.63783 | 34321 ft | 555 kts | 9° |
| 2026-05-08 02:22 | -35.37918 | -71.61610 | 34320 ft | 554 kts | 9° |
| 2026-05-08 02:22 | -35.30420 | -71.59450 | 34320 ft | 553 kts | 9° |
| 2026-05-08 02:23 | -35.22920 | -71.57293 | 34315 ft | 553 kts | 9° |
| 2026-05-08 02:23 | -35.15426 | -71.55142 | 34310 ft | 552 kts | 9° |
| 2026-05-08 02:24 | -35.07941 | -71.52991 | 34307 ft | 552 kts | 8° |
| 2026-05-08 02:24 | -35.00472 | -71.50855 | 34299 ft | 551 kts | 9° |
| 2026-05-08 02:25 | -34.92953 | -71.48710 | 34114 ft | 548 kts | 8° |
| 2026-05-08 02:25 | -34.89260 | -71.47658 | 33840 ft | 544 kts | 9° |
| 2026-05-08 02:25 | -34.85582 | -71.46611 | 33571 ft | 541 kts | 9° |
| 2026-05-08 02:26 | -34.81876 | -71.45557 | 33304 ft | 539 kts | 9° |
| 2026-05-08 02:26 | -34.78234 | -71.44524 | 33041 ft | 536 kts | 9° |
| 2026-05-08 02:26 | -34.74654 | -71.43507 | 32446 ft | 536 kts | 9° |
| 2026-05-08 02:26 | -34.70920 | -71.42444 | 31724 ft | 537 kts | 9° |
| 2026-05-08 02:27 | -34.67222 | -71.41402 | 31028 ft | 539 kts | 11° |
| 2026-05-08 02:27 | -34.63659 | -71.40074 | 30698 ft | 533 kts | 20° |
| 2026-05-08 02:27 | -34.60255 | -71.38389 | 30459 ft | 524 kts | 22° |
| 2026-05-08 02:27 | -34.56903 | -71.36721 | 30199 ft | 518 kts | 21° |
| 2026-05-08 02:28 | -34.53535 | -71.35060 | 29903 ft | 514 kts | 21° |
| 2026-05-08 02:28 | -34.50229 | -71.33443 | 29631 ft | 510 kts | 21° |
| 2026-05-08 02:28 | -34.46947 | -71.31843 | 29366 ft | 507 kts | 21° |
| 2026-05-08 02:28 | -34.43686 | -71.30250 | 28892 ft | 504 kts | 21° |
| 2026-05-08 02:29 | -34.40439 | -71.28661 | 28309 ft | 503 kts | 20° |
| 2026-05-08 02:29 | -34.37191 | -71.27069 | 27737 ft | 500 kts | 20° |
| 2026-05-08 02:29 | -34.33929 | -71.25467 | 27174 ft | 498 kts | 20° |
| 2026-05-08 02:29 | -34.30719 | -71.23889 | 26616 ft | 497 kts | 20° |
| 2026-05-08 02:30 | -34.27519 | -71.22323 | 26049 ft | 495 kts | 20° |
| 2026-05-08 02:30 | -34.24368 | -71.20787 | 25617 ft | 492 kts | 19° |
| 2026-05-08 02:30 | -34.21174 | -71.19233 | 25179 ft | 487 kts | 19° |
| 2026-05-08 02:30 | -34.18086 | -71.17726 | 24709 ft | 483 kts | 19° |
| 2026-05-08 02:31 | -34.14948 | -71.16193 | 24269 ft | 478 kts | 19° |
| 2026-05-08 02:31 | -34.11867 | -71.14690 | 23811 ft | 474 kts | 19° |
| 2026-05-08 02:31 | -34.08823 | -71.13209 | 23335 ft | 470 kts | 19° |
| 2026-05-08 02:31 | -34.05809 | -71.11743 | 22813 ft | 465 kts | 19° |
| 2026-05-08 02:32 | -34.02821 | -71.10290 | 22361 ft | 460 kts | 19° |
| 2026-05-08 02:32 | -33.99860 | -71.08852 | 21944 ft | 456 kts | 19° |
| 2026-05-08 02:32 | -33.96936 | -71.07435 | 21519 ft | 451 kts | 19° |
| 2026-05-08 02:32 | -33.94039 | -71.06032 | 21090 ft | 447 kts | 19° |
| 2026-05-08 02:33 | -33.91125 | -71.04620 | 20701 ft | 443 kts | 19° |
| 2026-05-08 02:33 | -33.88274 | -71.03236 | 20309 ft | 439 kts | 19° |
| 2026-05-08 02:33 | -33.85483 | -71.01884 | 19899 ft | 435 kts | 19° |
| 2026-05-08 02:33 | -33.82682 | -71.00531 | 19539 ft | 432 kts | 19° |
| 2026-05-08 02:34 | -33.79905 | -70.99190 | 19189 ft | 428 kts | 19° |
| 2026-05-08 02:34 | -33.77133 | -70.97849 | 18567 ft | 421 kts | 20° |
| 2026-05-08 02:34 | -33.74517 | -70.96585 | 17781 ft | 415 kts | 20° |
| 2026-05-08 02:34 | -33.71857 | -70.95301 | 17049 ft | 408 kts | 20° |
| 2026-05-08 02:35 | -33.69238 | -70.94041 | 16359 ft | 401 kts | 20° |
| 2026-05-08 02:35 | -33.66670 | -70.92806 | 15680 ft | 394 kts | 20° |
| 2026-05-08 02:35 | -33.64149 | -70.91593 | 15042 ft | 387 kts | 21° |
| 2026-05-08 02:35 | -33.61649 | -70.90389 | 14464 ft | 378 kts | 21° |
| 2026-05-08 02:36 | -33.60041 | -70.89615 | 14083 ft | 373 kts | 21° |
| 2026-05-08 02:36 | -33.57674 | -70.88474 | 13714 ft | 362 kts | 21° |
| 2026-05-08 02:36 | -33.55483 | -70.87133 | 13326 ft | 349 kts | 32° |
| 2026-05-08 02:36 | -33.53417 | -70.85607 | 12939 ft | 336 kts | 32° |
| 2026-05-08 02:37 | -33.51435 | -70.84147 | 12554 ft | 324 kts | 32° |
| 2026-05-08 02:37 | -33.49520 | -70.82738 | 12185 ft | 313 kts | 32° |
| 2026-05-08 02:37 | -33.47623 | -70.81595 | 12041 ft | 301 kts | 17° |
| 2026-05-08 02:37 | -33.45609 | -70.80896 | 11971 ft | 302 kts | 15° |
| 2026-05-08 02:38 | -33.43587 | -70.80208 | 11902 ft | 302 kts | 15° |
| 2026-05-08 02:38 | -33.41577 | -70.79488 | 11785 ft | 301 kts | 17° |
| 2026-05-08 02:38 | -33.39587 | -70.78716 | 11468 ft | 300 kts | 18° |
| 2026-05-08 02:38 | -33.37608 | -70.77921 | 11091 ft | 301 kts | 19° |
| 2026-05-08 02:39 | -33.35593 | -70.77107 | 10496 ft | 310 kts | 19° |
| 2026-05-08 02:39 | -33.33546 | -70.76287 | 10093 ft | 309 kts | 19° |
| 2026-05-08 02:39 | -33.31535 | -70.75488 | 9940 ft | 300 kts | 18° |
| 2026-05-08 02:39 | -33.29570 | -70.74713 | 9641 ft | 295 kts | 18° |
| 2026-05-08 02:40 | -33.27622 | -70.73947 | 9295 ft | 293 kts | 18° |
| 2026-05-08 02:40 | -33.25695 | -70.73194 | 8934 ft | 291 kts | 18° |
| 2026-05-08 02:40 | -33.23772 | -70.72447 | 8568 ft | 289 kts | 18° |
| 2026-05-08 02:40 | -33.21866 | -70.71708 | 8205 ft | 287 kts | 18° |
| 2026-05-08 02:41 | -33.19976 | -70.70973 | 7841 ft | 285 kts | 18° |
| 2026-05-08 02:41 | -33.18063 | -70.70395 | 7475 ft | 283 kts | 1° |
| 2026-05-08 02:41 | -33.16151 | -70.70785 | 7117 ft | 280 kts | 344° |
| 2026-05-08 02:41 | -33.14239 | -70.71194 | 6732 ft | 279 kts | 354° |
| 2026-05-08 02:42 | -33.12343 | -70.71403 | 6594 ft | 267 kts | 354° |
| 2026-05-08 02:42 | -33.10579 | -70.71873 | 6455 ft | 255 kts | 337° |
| 2026-05-08 02:42 | -33.09152 | -70.73002 | 6327 ft | 242 kts | 309° |
| 2026-05-08 02:42 | -33.08440 | -70.74746 | 6084 ft | 233 kts | 277° |
| 2026-05-08 02:43 | -33.08615 | -70.76623 | 5763 ft | 229 kts | 244° |
| 2026-05-08 02:43 | -33.09553 | -70.78116 | 5456 ft | 226 kts | 223° |
| 2026-05-08 02:43 | -33.10692 | -70.79372 | 5330 ft | 219 kts | 220° |
| 2026-05-08 02:43 | -33.11803 | -70.80542 | 5210 ft | 212 kts | 217° |
| 2026-05-08 02:44 | -33.13059 | -70.81377 | 5093 ft | 204 kts | 195° |
| 2026-05-08 02:44 | -33.14449 | -70.81589 | 5005 ft | 201 kts | 176° |
| 2026-05-08 02:44 | -33.15850 | -70.81511 | 4988 ft | 201 kts | 176° |
| 2026-05-08 02:44 | -33.17267 | -70.81436 | 4998 ft | 201 kts | 176° |
| 2026-05-08 02:45 | -33.18646 | -70.81363 | 5020 ft | 190 kts | 176° |
| 2026-05-08 02:45 | -33.19922 | -70.81296 | 4932 ft | 179 kts | 176° |
| 2026-05-08 02:45 | -33.21145 | -70.81230 | 4744 ft | 174 kts | 176° |
| 2026-05-08 02:45 | -33.22345 | -70.81166 | 4527 ft | 171 kts | 176° |
| 2026-05-08 02:46 | -33.23529 | -70.81103 | 4309 ft | 169 kts | 176° |
| 2026-05-08 02:46 | -33.24699 | -70.81040 | 4080 ft | 167 kts | 176° |
| 2026-05-08 02:46 | -33.25857 | -70.80978 | 3862 ft | 166 kts | 176° |
| 2026-05-08 02:46 | -33.27006 | -70.80917 | 3643 ft | 165 kts | 176° |
| 2026-05-08 02:47 | -33.28142 | -70.80856 | 3424 ft | 160 kts | 176° |
| 2026-05-08 02:47 | -33.29224 | -70.80799 | 3207 ft | 153 kts | 176° |
| 2026-05-08 02:47 | -33.30278 | -70.80742 | 2990 ft | 150 kts | 176° |
| 2026-05-08 02:47 | -33.31315 | -70.80687 | 2784 ft | 149 kts | 176° |
| 2026-05-08 02:48 | -33.32346 | -70.80631 | 2570 ft | 148 kts | 176° |
| 2026-05-08 02:48 | -33.33373 | -70.80576 | 2367 ft | 147 kts | 176° |
| 2026-05-08 02:48 | -33.34387 | -70.80522 | 2164 ft | 145 kts | 176° |
| 2026-05-08 02:48 | -33.35392 | -70.80468 | 1965 ft | 144 kts | 176° |
| 2026-05-08 02:49 | -33.36387 | -70.80415 | 1769 ft | 142 kts | 176° |
| 2026-05-08 02:49 | -33.37372 | -70.80366 | 1588 ft | 141 kts | 176° |
| 2026-05-08 02:49 | -33.38234 | -70.80318 | 1572 ft | 101 kts | 178° |
| 2026-05-08 02:49 | -33.38788 | -70.80288 | 1574 ft | 65 kts | 178° |
| 2026-05-08 02:50 | -33.39149 | -70.80267 | 1573 ft | 36 kts | 174° |
| 2026-05-08 02:50 | -33.39348 | -70.80183 | 1571 ft | 23 kts | 148° |
| 2026-05-08 02:50 | -33.39448 | -70.80112 | 1567 ft | 13 kts | 147° |
| 2026-05-08 02:50 | -33.39521 | -70.80026 | 1566 ft | 16 kts | 117° |
| 2026-05-08 02:51 | -33.39531 | -70.79925 | 1565 ft | 10 kts | 88° |
| 2026-05-08 02:51 | -33.39529 | -70.79846 | 1565 ft | 9 kts | 88° |
| 2026-05-08 02:51 | -33.39538 | -70.79807 | 1565 ft | 2 kts | 165° |
| 2026-05-08 02:51 | -33.39550 | -70.79807 | 1565 ft | 3 kts | 178° |
| 2026-05-08 02:52 | -33.39589 | -70.79806 | 1565 ft | 7 kts | 179° |
| 2026-05-08 02:52 | -33.39608 | -70.79805 | 1565 ft | 0 kts | 178° |